Alpena, MI

9:02 PM EDT on October 21, 2014 (GMT -0400)
Alpena County Regional | Change Station
CLOSE
Current Station
Airport
Location: Alpena,
Elevation: 689 ft
Nearby Weather Stations

Elev 689 ft 45.07 °N, 83.56 °W | Updated 8 minutes ago

Clear
Clear
34 °F
Feels Like 31 °F
N
4
Wind Variable Wind from North

Today
High -- | Low -- °F
--% Chance of Precip.
Yesterday
High -- | Low -- °F
Precip. -- in
7:57 AM 6:38 PM
Waning Crescent, 4% visible
Pressure 30.30 in
Visibility 10.0 miles
Clouds Clear
Windchill 31 °F
Dew Point 29 °F
Humidity 82%
Rainfall 0.00 in
Snow Depth Not available.
UV 0 out of 12
Pollen .80 out of 12
Ozone Good
PM2.5 Good
Flu Activity Sporadic
METAR KAPN 220054Z AUTO 36003KT 10SM CLR 01/M02 A3027 RMK AO2 SLP259 T00111017

More Conditions Fewer Conditions

Pressure 30.30 in
Visibility 10.0 miles
Clouds Clear
Windchill 31 °F
Dew Point 29 °F
Humidity 82%
Rainfall 0.00 in
Snow Depth Not available.
UV 0 out of 12
Pollen .80 out of 12
Ozone Good
PM2.5 Good
Flu Activity Sporadic
METAR KAPN 220054Z AUTO 36003KT 10SM CLR 01/M02 A3027 RMK AO2 SLP259 T00111017

More Conditions Fewer Conditions

Nowcast | as of 9:00 PM EDT on October 21, 2014

At 10 PM...partly cloudy. Temperature 39. Light winds. At 12 am...mostly cloudy. Temperature 39. Northeast winds 6 mph. At 2 am...mostly cloudy. Temperature 39. Northeast winds 6 mph. At 4 am...mostly cloudy. Temperature 38. Northeast winds 6 mph.

×

10-Day Weather Forecast

Almanac

Astronomy

Oct. 21, 2014 Rise Set
Actual Time 7:57 AM EDT 6:38 PM EDT
Civil Twilight 7:27 AM EDT 7:08 PM EDT
Nautical Twilight 6:53 AM EDT 7:42 PM EDT
Astronomical Twilight 6:19 AM EDT 8:16 PM EDT
Moon 5:35 AM EDT (10/21) 5:36 PM EDT (10/21)
Length of Visible Light 11h 40m
Length of Day
10h 41m
Tomorrow will be 2m 59s shorter.
Waning Crescent, 4% of the Moon is Illuminated
Today
Waning Crescent
Oct 23
New
Oct 30
First Quarter
Nov 6
Full
Nov 14
Last Quarter

Today's Extremes

State Highs State Lows

Community

WunderPhotos

Upload Photos

1,763,836 photos uploaded!

Nearby

Air Quality

  Air Quality AQ Index Pollutant
Yesterday Good
PM2.5
Yesterday Good
OZONE
Current Good
PM2.5
Current Good
OZONE
Tuesday Good
PM2.5
Wednesday Good
PM2.5
Thursday Good
PM2.5
Friday Good
PM2.5
Saturday Good
PM2.5

Snow Depth

Station Depth Elevation
No new snow has been reported.

Earthquake Activity

City Distance Mag. Time & Date
No recent earthquake activity has been reported nearby.
Minimum magnitude displayed is 2.5.

Coastal Water Temperatures

Place Temperature
Alpena, MI 57.0 °F

Nearby Weather Stations